sensor_id;sensor_type;location;lat;lon;timestamp;P1;durP1;ratioP1;P2;durP2;ratioP2
12118;SDS011;6123;48.864;9.200;2022-09-01T00:01:14;10.70;;;9.80;;
12118;SDS011;6123;48.864;9.200;2022-09-01T00:03:48;10.60;;;9.73;;
12118;SDS011;6123;48.864;9.200;2022-09-01T00:06:17;11.85;;;10.95;;
12118;SDS011;6123;48.864;9.200;2022-09-01T00:08:47;14.48;;;13.23;;
12118;SDS011;6123;48.864;9.200;2022-09-01T00:11:13;11.40;;;10.60;;
12118;SDS011;6123;48.864;9.200;2022-09-01T00:13:42;14.75;;;13.52;;
12118;SDS011;6123;48.864;9.200;2022-09-01T00:16:08;13.60;;;12.50;;
12118;SDS011;6123;48.864;9.200;2022-09-01T00:18:38;13.55;;;12.30;;
12118;SDS011;6123;48.864;9.200;2022-09-01T00:21:06;13.65;;;12.55;;
12118;SDS011;6123;48.864;9.200;2022-09-01T00:23:32;10.85;;;10.05;;
12118;SDS011;6123;48.864;9.200;2022-09-01T00:25:58;11.63;;;10.60;;
12118;SDS011;6123;48.864;9.200;2022-09-01T00:28:24;12.82;;;11.80;;
12118;SDS011;6123;48.864;9.200;2022-09-01T00:30:49;13.45;;;12.45;;
12118;SDS011;6123;48.864;9.200;2022-09-01T00:33:15;13.13;;;12.02;;
12118;SDS011;6123;48.864;9.200;2022-09-01T00:35:41;12.00;;;10.98;;
12118;SDS011;6123;48.864;9.200;2022-09-01T00:38:06;12.40;;;11.48;;
12118;SDS011;6123;48.864;9.200;2022-09-01T00:40:32;12.05;;;11.15;;
12118;SDS011;6123;48.864;9.200;2022-09-01T00:42:58;11.68;;;10.70;;
12118;SDS011;6123;48.864;9.200;2022-09-01T00:45:25;12.82;;;11.93;;
12118;SDS011;6123;48.864;9.200;2022-09-01T00:47:53;12.30;;;11.18;;
12118;SDS011;6123;48.864;9.200;2022-09-01T00:50:20;13.48;;;12.45;;
12118;SDS011;6123;48.864;9.200;2022-09-01T00:52:50;11.02;;;10.13;;
12118;SDS011;6123;48.864;9.200;2022-09-01T00:55:25;13.52;;;12.25;;
12118;SDS011;6123;48.864;9.200;2022-09-01T00:57:55;13.68;;;12.43;;
12118;SDS011;6123;48.864;9.200;2022-09-01T01:00:24;15.27;;;14.07;;
12118;SDS011;6123;48.864;9.200;2022-09-01T01:02:54;13.02;;;11.90;;
12118;SDS011;6123;48.864;9.200;2022-09-01T01:05:30;13.05;;;11.82;;
12118;SDS011;6123;48.864;9.200;2022-09-01T01:07:58;12.48;;;11.52;;
12118;SDS011;6123;48.864;9.200;2022-09-01T01:10:25;11.65;;;10.65;;
12118;SDS011;6123;48.864;9.200;2022-09-01T01:12:59;12.32;;;11.38;;
12118;SDS011;6123;48.864;9.200;2022-09-01T01:15:27;12.88;;;11.77;;
12118;SDS011;6123;48.864;9.200;2022-09-01T01:17:55;11.60;;;10.70;;
12118;SDS011;6123;48.864;9.200;2022-09-01T01:20:22;12.30;;;11.30;;
12118;SDS011;6123;48.864;9.200;2022-09-01T01:23:15;11.25;;;10.25;;
12118;SDS011;6123;48.864;9.200;2022-09-01T01:26:01;10.95;;;10.05;;
12118;SDS011;6123;48.864;9.200;2022-09-01T01:28:36;11.65;;;10.68;;
12118;SDS011;6123;48.864;9.200;2022-09-01T01:33:38;12.27;;;11.27;;
12118;SDS011;6123;48.864;9.200;2022-09-01T01:36:23;10.70;;;9.90;;
12118;SDS011;6123;48.864;9.200;2022-09-01T01:39:03;11.38;;;10.27;;
12118;SDS011;6123;48.864;9.200;2022-09-01T01:41:30;12.38;;;11.45;;
12118;SDS011;6123;48.864;9.200;2022-09-01T01:43:58;13.60;;;12.45;;
12118;SDS011;6123;48.864;9.200;2022-09-01T01:46:28;10.90;;;10.00;;
12118;SDS011;6123;48.864;9.200;2022-09-01T01:48:54;15.25;;;14.10;;
12118;SDS011;6123;48.864;9.200;2022-09-01T01:51:23;12.25;;;11.27;;
12118;SDS011;6123;48.864;9.200;2022-09-01T01:53:53;12.15;;;11.23;;
12118;SDS011;6123;48.864;9.200;2022-09-01T01:56:22;13.27;;;12.35;;
12118;SDS011;6123;48.864;9.200;2022-09-01T01:58:49;12.98;;;11.88;;
12118;SDS011;6123;48.864;9.200;2022-09-01T02:01:19;11.65;;;10.75;;
12118;SDS011;6123;48.864;9.200;2022-09-01T02:03:57;12.00;;;11.05;;
12118;SDS011;6123;48.864;9.200;2022-09-01T02:06:29;11.15;;;10.25;;
12118;SDS011;6123;48.864;9.200;2022-09-01T02:08:58;13.05;;;12.05;;
12118;SDS011;6123;48.864;9.200;2022-09-01T02:11:28;11.05;;;10.25;;
12118;SDS011;6123;48.864;9.200;2022-09-01T02:13:57;11.35;;;10.50;;
12118;SDS011;6123;48.864;9.200;2022-09-01T02:16:27;12.68;;;11.48;;
12118;SDS011;6123;48.864;9.200;2022-09-01T02:18:57;13.75;;;12.65;;
12118;SDS011;6123;48.864;9.200;2022-09-01T02:21:24;14.52;;;13.20;;
12118;SDS011;6123;48.864;9.200;2022-09-01T02:23:58;11.95;;;10.95;;
12118;SDS011;6123;48.864;9.200;2022-09-01T02:26:27;11.70;;;10.80;;
12118;SDS011;6123;48.864;9.200;2022-09-01T02:28:59;14.10;;;13.10;;
12118;SDS011;6123;48.864;9.200;2022-09-01T02:31:29;16.63;;;15.10;;
12118;SDS011;6123;48.864;9.200;2022-09-01T02:33:56;12.52;;;11.60;;
12118;SDS011;6123;48.864;9.200;2022-09-01T02:36:22;15.95;;;14.63;;
12118;SDS011;6123;48.864;9.200;2022-09-01T02:38:50;12.85;;;11.63;;
12118;SDS011;6123;48.864;9.200;2022-09-01T02:41:17;12.63;;;11.63;;
12118;SDS011;6123;48.864;9.200;2022-09-01T02:43:48;15.38;;;14.10;;
12118;SDS011;6123;48.864;9.200;2022-09-01T02:46:14;11.95;;;11.05;;
12118;SDS011;6123;48.864;9.200;2022-09-01T02:48:40;16.73;;;12.68;;
12118;SDS011;6123;48.864;9.200;2022-09-01T02:51:11;14.68;;;13.35;;
12118;SDS011;6123;48.864;9.200;2022-09-01T02:53:39;15.13;;;14.02;;
12118;SDS011;6123;48.864;9.200;2022-09-01T02:56:07;14.15;;;13.10;;
12118;SDS011;6123;48.864;9.200;2022-09-01T02:58:36;17.38;;;15.73;;
12118;SDS011;6123;48.864;9.200;2022-09-01T03:01:20;12.73;;;11.73;;
12118;SDS011;6123;48.864;9.200;2022-09-01T03:03:55;12.20;;;11.20;;
12118;SDS011;6123;48.864;9.200;2022-09-01T03:06:23;13.05;;;11.85;;
12118;SDS011;6123;48.864;9.200;2022-09-01T03:08:50;12.40;;;11.32;;
12118;SDS011;6123;48.864;9.200;2022-09-01T03:11:17;15.27;;;14.07;;
12118;SDS011;6123;48.864;9.200;2022-09-01T03:13:43;14.43;;;13.13;;
12118;SDS011;6123;48.864;9.200;2022-09-01T03:16:12;11.65;;;10.85;;
12118;SDS011;6123;48.864;9.200;2022-09-01T03:18:37;12.80;;;11.70;;
12118;SDS011;6123;48.864;9.200;2022-09-01T03:21:04;11.52;;;10.73;;
12118;SDS011;6123;48.864;9.200;2022-09-01T03:23:32;12.98;;;11.88;;
12118;SDS011;6123;48.864;9.200;2022-09-01T03:25:59;13.02;;;11.93;;
12118;SDS011;6123;48.864;9.200;2022-09-01T03:28:25;12.18;;;11.18;;
12118;SDS011;6123;48.864;9.200;2022-09-01T03:30:53;14.50;;;13.40;;
12118;SDS011;6123;48.864;9.200;2022-09-01T03:33:20;12.98;;;11.93;;
12118;SDS011;6123;48.864;9.200;2022-09-01T03:35:47;14.25;;;13.13;;
12118;SDS011;6123;48.864;9.200;2022-09-01T03:38:14;13.30;;;12.30;;
12118;SDS011;6123;48.864;9.200;2022-09-01T03:40:47;12.73;;;11.70;;
12118;SDS011;6123;48.864;9.200;2022-09-01T03:43:17;12.15;;;11.13;;
12118;SDS011;6123;48.864;9.200;2022-09-01T03:45:49;14.10;;;12.85;;
12118;SDS011;6123;48.864;9.200;2022-09-01T03:48:19;13.02;;;11.82;;
12118;SDS011;6123;48.864;9.200;2022-09-01T03:50:46;12.48;;;11.38;;
12118;SDS011;6123;48.864;9.200;2022-09-01T03:53:16;13.70;;;12.60;;
12118;SDS011;6123;48.864;9.200;2022-09-01T03:55:47;14.65;;;13.45;;
12118;SDS011;6123;48.864;9.200;2022-09-01T03:58:14;12.13;;;11.05;;
12118;SDS011;6123;48.864;9.200;2022-09-01T04:00:44;13.02;;;11.93;;
12118;SDS011;6123;48.864;9.200;2022-09-01T04:03:12;12.30;;;11.38;;
12118;SDS011;6123;48.864;9.200;2022-09-01T04:05:41;12.45;;;11.52;;
12118;SDS011;6123;48.864;9.200;2022-09-01T04:08:08;14.93;;;13.70;;
12118;SDS011;6123;48.864;9.200;2022-09-01T04:10:46;12.45;;;11.55;;
12118;SDS011;6123;48.864;9.200;2022-09-01T04:13:16;12.88;;;11.98;;
12118;SDS011;6123;48.864;9.200;2022-09-01T04:15:50;11.65;;;10.85;;
12118;SDS011;6123;48.864;9.200;2022-09-01T04:18:18;12.20;;;11.30;;
12118;SDS011;6123;48.864;9.200;2022-09-01T04:20:45;15.55;;;14.32;;
12118;SDS011;6123;48.864;9.200;2022-09-01T04:26:02;12.40;;;11.35;;
12118;SDS011;6123;48.864;9.200;2022-09-01T04:28:34;12.68;;;11.77;;
12118;SDS011;6123;48.864;9.200;2022-09-01T04:31:13;12.35;;;11.40;;
12118;SDS011;6123;48.864;9.200;2022-09-01T04:33:44;12.00;;;10.93;;
12118;SDS011;6123;48.864;9.200;2022-09-01T04:36:15;12.82;;;11.82;;
12118;SDS011;6123;48.864;9.200;2022-09-01T04:38:47;14.07;;;13.07;;
12118;SDS011;6123;48.864;9.200;2022-09-01T04:41:18;12.77;;;11.77;;
12118;SDS011;6123;48.864;9.200;2022-09-01T04:43:45;15.27;;;13.98;;
12118;SDS011;6123;48.864;9.200;2022-09-01T04:46:14;14.38;;;13.30;;
12118;SDS011;6123;48.864;9.200;2022-09-01T04:48:41;16.15;;;14.75;;
12118;SDS011;6123;48.864;9.200;2022-09-01T04:51:09;12.40;;;11.50;;
12118;SDS011;6123;48.864;9.200;2022-09-01T04:53:39;13.45;;;12.45;;
12118;SDS011;6123;48.864;9.200;2022-09-01T04:56:15;14.93;;;13.63;;
12118;SDS011;6123;48.864;9.200;2022-09-01T04:58:47;13.68;;;12.57;;
12118;SDS011;6123;48.864;9.200;2022-09-01T05:01:20;12.45;;;11.55;;
12118;SDS011;6123;48.864;9.200;2022-09-01T05:03:50;13.57;;;12.38;;
12118;SDS011;6123;48.864;9.200;2022-09-01T05:06:28;14.05;;;12.95;;
12118;SDS011;6123;48.864;9.200;2022-09-01T05:08:54;16.95;;;15.55;;
12118;SDS011;6123;48.864;9.200;2022-09-01T05:11:23;13.10;;;12.10;;
12118;SDS011;6123;48.864;9.200;2022-09-01T05:13:52;13.13;;;12.07;;
12118;SDS011;6123;48.864;9.200;2022-09-01T05:16:21;15.07;;;13.88;;
12118;SDS011;6123;48.864;9.200;2022-09-01T05:18:47;14.77;;;13.43;;
12118;SDS011;6123;48.864;9.200;2022-09-01T05:21:19;13.88;;;12.88;;
12118;SDS011;6123;48.864;9.200;2022-09-01T05:23:50;14.30;;;13.13;;
12118;SDS011;6123;48.864;9.200;2022-09-01T05:26:18;15.52;;;14.23;;
12118;SDS011;6123;48.864;9.200;2022-09-01T05:28:48;16.88;;;15.50;;
12118;SDS011;6123;48.864;9.200;2022-09-01T05:31:18;16.35;;;15.05;;
12118;SDS011;6123;48.864;9.200;2022-09-01T05:33:44;14.90;;;13.70;;
12118;SDS011;6123;48.864;9.200;2022-09-01T05:36:12;14.13;;;13.02;;
12118;SDS011;6123;48.864;9.200;2022-09-01T05:38:41;15.45;;;14.15;;
12118;SDS011;6123;48.864;9.200;2022-09-01T05:41:11;16.30;;;14.90;;
12118;SDS011;6123;48.864;9.200;2022-09-01T05:43:44;17.10;;;15.60;;
12118;SDS011;6123;48.864;9.200;2022-09-01T05:46:21;14.35;;;13.15;;
12118;SDS011;6123;48.864;9.200;2022-09-01T05:48:49;17.10;;;15.80;;
12118;SDS011;6123;48.864;9.200;2022-09-01T05:51:23;16.08;;;14.88;;
12118;SDS011;6123;48.864;9.200;2022-09-01T05:53:53;17.60;;;16.10;;
12118;SDS011;6123;48.864;9.200;2022-09-01T05:56:25;16.65;;;15.32;;
12118;SDS011;6123;48.864;9.200;2022-09-01T05:58:52;17.58;;;15.88;;
12118;SDS011;6123;48.864;9.200;2022-09-01T06:01:25;18.13;;;16.58;;
12118;SDS011;6123;48.864;9.200;2022-09-01T06:03:53;18.70;;;17.17;;
12118;SDS011;6123;48.864;9.200;2022-09-01T06:06:21;17.17;;;15.80;;
12118;SDS011;6123;48.864;9.200;2022-09-01T06:08:48;15.77;;;14.48;;
12118;SDS011;6123;48.864;9.200;2022-09-01T06:11:18;22.73;;;20.63;;
12118;SDS011;6123;48.864;9.200;2022-09-01T06:13:48;20.90;;;19.13;;
12118;SDS011;6123;48.864;9.200;2022-09-01T06:16:18;21.05;;;19.35;;
12118;SDS011;6123;48.864;9.200;2022-09-01T06:18:44;21.67;;;19.77;;
12118;SDS011;6123;48.864;9.200;2022-09-01T06:21:14;20.13;;;18.42;;
12118;SDS011;6123;48.864;9.200;2022-09-01T06:23:41;21.17;;;19.38;;
12118;SDS011;6123;48.864;9.200;2022-09-01T06:26:17;19.90;;;18.20;;
12118;SDS011;6123;48.864;9.200;2022-09-01T06:28:52;20.80;;;18.90;;
12118;SDS011;6123;48.864;9.200;2022-09-01T06:31:20;18.70;;;17.20;;
12118;SDS011;6123;48.864;9.200;2022-09-01T06:33:52;17.48;;;15.80;;
12118;SDS011;6123;48.864;9.200;2022-09-01T06:36:22;21.33;;;19.52;;
12118;SDS011;6123;48.864;9.200;2022-09-01T06:38:51;21.90;;;20.10;;
12118;SDS011;6123;48.864;9.200;2022-09-01T06:41:20;20.60;;;18.85;;
12118;SDS011;6123;48.864;9.200;2022-09-01T06:43:48;20.65;;;18.95;;
12118;SDS011;6123;48.864;9.200;2022-09-01T06:46:16;24.10;;;22.02;;
12118;SDS011;6123;48.864;9.200;2022-09-01T06:48:44;19.77;;;18.17;;
12118;SDS011;6123;48.864;9.200;2022-09-01T06:51:14;18.73;;;17.10;;
12118;SDS011;6123;48.864;9.200;2022-09-01T06:53:42;20.67;;;18.88;;
12118;SDS011;6123;48.864;9.200;2022-09-01T06:56:09;18.80;;;17.30;;
12118;SDS011;6123;48.864;9.200;2022-09-01T06:58:40;18.77;;;17.17;;
12118;SDS011;6123;48.864;9.200;2022-09-01T07:01:12;18.95;;;17.38;;
12118;SDS011;6123;48.864;9.200;2022-09-01T07:03:43;17.05;;;15.75;;
12118;SDS011;6123;48.864;9.200;2022-09-01T07:06:11;17.48;;;16.10;;
12118;SDS011;6123;48.864;9.200;2022-09-01T07:08:37;16.67;;;15.15;;
12118;SDS011;6123;48.864;9.200;2022-09-01T07:11:15;16.98;;;15.50;;
12118;SDS011;6123;48.864;9.200;2022-09-01T07:13:49;16.23;;;14.82;;
12118;SDS011;6123;48.864;9.200;2022-09-01T07:16:18;16.08;;;14.77;;
12118;SDS011;6123;48.864;9.200;2022-09-01T07:18:52;16.20;;;14.93;;
12118;SDS011;6123;48.864;9.200;2022-09-01T07:21:21;14.70;;;13.45;;
12118;SDS011;6123;48.864;9.200;2022-09-01T07:23:48;16.17;;;14.98;;
12118;SDS011;6123;48.864;9.200;2022-09-01T07:26:13;16.60;;;15.32;;
12118;SDS011;6123;48.864;9.200;2022-09-01T07:28:44;17.65;;;15.95;;
12118;SDS011;6123;48.864;9.200;2022-09-01T07:31:27;16.10;;;14.70;;
12118;SDS011;6123;48.864;9.200;2022-09-01T07:34:04;14.65;;;13.55;;
12118;SDS011;6123;48.864;9.200;2022-09-01T07:36:38;15.00;;;13.82;;
12118;SDS011;6123;48.864;9.200;2022-09-01T07:39:05;16.70;;;15.27;;
12118;SDS011;6123;48.864;9.200;2022-09-01T07:41:33;15.30;;;13.90;;
12118;SDS011;6123;48.864;9.200;2022-09-01T07:44:02;14.90;;;13.75;;
12118;SDS011;6123;48.864;9.200;2022-09-01T07:46:29;14.80;;;13.60;;
12118;SDS011;6123;48.864;9.200;2022-09-01T07:48:58;16.35;;;14.90;;
12118;SDS011;6123;48.864;9.200;2022-09-01T07:51:27;14.15;;;12.90;;
12118;SDS011;6123;48.864;9.200;2022-09-01T07:53:55;11.45;;;10.57;;
12118;SDS011;6123;48.864;9.200;2022-09-01T07:56:22;9.57;;;8.77;;
12118;SDS011;6123;48.864;9.200;2022-09-01T07:58:51;9.88;;;9.07;;
12118;SDS011;6123;48.864;9.200;2022-09-01T08:01:21;10.50;;;9.60;;
12118;SDS011;6123;48.864;9.200;2022-09-01T08:03:50;8.70;;;8.05;;
12118;SDS011;6123;48.864;9.200;2022-09-01T08:06:21;10.32;;;9.52;;
12118;SDS011;6123;48.864;9.200;2022-09-01T08:08:50;9.50;;;8.80;;
12118;SDS011;6123;48.864;9.200;2022-09-01T08:11:19;9.73;;;9.02;;
12118;SDS011;6123;48.864;9.200;2022-09-01T08:13:49;9.65;;;8.95;;
12118;SDS011;6123;48.864;9.200;2022-09-01T08:16:18;9.95;;;9.05;;
12118;SDS011;6123;48.864;9.200;2022-09-01T08:18:46;10.68;;;9.82;;
12118;SDS011;6123;48.864;9.200;2022-09-01T08:21:13;9.50;;;8.80;;
12118;SDS011;6123;48.864;9.200;2022-09-01T08:23:39;9.95;;;9.25;;
12118;SDS011;6123;48.864;9.200;2022-09-01T08:26:06;9.25;;;8.55;;
12118;SDS011;6123;48.864;9.200;2022-09-01T08:28:33;9.35;;;8.65;;
12118;SDS011;6123;48.864;9.200;2022-09-01T08:30:59;10.32;;;9.52;;
12118;SDS011;6123;48.864;9.200;2022-09-01T08:33:29;8.43;;;7.82;;
12118;SDS011;6123;48.864;9.200;2022-09-01T08:35:59;9.90;;;9.20;;
12118;SDS011;6123;48.864;9.200;2022-09-01T08:38:25;9.23;;;8.57;;
12118;SDS011;6123;48.864;9.200;2022-09-01T08:40:52;9.57;;;8.88;;
12118;SDS011;6123;48.864;9.200;2022-09-01T08:46:07;8.35;;;7.75;;
12118;SDS011;6123;48.864;9.200;2022-09-01T08:48:47;7.72;;;7.22;;
12118;SDS011;6123;48.864;9.200;2022-09-01T08:51:34;7.00;;;6.55;;
12118;SDS011;6123;48.864;9.200;2022-09-01T08:59:46;7.15;;;6.65;;
12118;SDS011;6123;48.864;9.200;2022-09-01T09:10:11;8.85;;;8.20;;
12118;SDS011;6123;48.864;9.200;2022-09-01T09:15:32;7.72;;;7.13;;
12118;SDS011;6123;48.864;9.200;2022-09-01T09:18:24;6.43;;;6.03;;
12118;SDS011;6123;48.864;9.200;2022-09-01T09:21:17;5.95;;;5.50;;
12118;SDS011;6123;48.864;9.200;2022-09-01T09:23:47;5.45;;;5.05;;
12118;SDS011;6123;48.864;9.200;2022-09-01T09:26:20;6.03;;;5.57;;
12118;SDS011;6123;48.864;9.200;2022-09-01T09:28:47;6.68;;;6.18;;
12118;SDS011;6123;48.864;9.200;2022-09-01T09:31:35;6.72;;;6.22;;
12118;SDS011;6123;48.864;9.200;2022-09-01T09:34:18;7.10;;;6.55;;
12118;SDS011;6123;48.864;9.200;2022-09-01T09:37:15;5.97;;;5.57;;
12118;SDS011;6123;48.864;9.200;2022-09-01T09:39:43;5.75;;;5.28;;
12118;SDS011;6123;48.864;9.200;2022-09-01T09:42:10;5.80;;;5.30;;
12118;SDS011;6123;48.864;9.200;2022-09-01T09:44:39;5.13;;;4.72;;
12118;SDS011;6123;48.864;9.200;2022-09-01T09:50:11;4.80;;;4.40;;
12118;SDS011;6123;48.864;9.200;2022-09-01T09:52:42;4.65;;;4.35;;
12118;SDS011;6123;48.864;9.200;2022-09-01T09:55:26;4.35;;;4.05;;
12118;SDS011;6123;48.864;9.200;2022-09-01T09:57:57;4.70;;;4.40;;
12118;SDS011;6123;48.864;9.200;2022-09-01T10:03:08;4.60;;;4.30;;
12118;SDS011;6123;48.864;9.200;2022-09-01T10:05:41;4.32;;;4.13;;
12118;SDS011;6123;48.864;9.200;2022-09-01T10:11:01;5.93;;;5.32;;
12118;SDS011;6123;48.864;9.200;2022-09-01T10:13:30;4.55;;;4.25;;
12118;SDS011;6123;48.864;9.200;2022-09-01T10:16:18;3.95;;;3.65;;
12118;SDS011;6123;48.864;9.200;2022-09-01T10:18:50;4.78;;;4.47;;
12118;SDS011;6123;48.864;9.200;2022-09-01T10:21:20;4.20;;;3.90;;
12118;SDS011;6123;48.864;9.200;2022-09-01T10:23:50;4.18;;;3.97;;
12118;SDS011;6123;48.864;9.200;2022-09-01T10:26:18;4.13;;;3.83;;
12118;SDS011;6123;48.864;9.200;2022-09-01T10:31:36;4.20;;;3.90;;
12118;SDS011;6123;48.864;9.200;2022-09-01T10:34:04;4.30;;;4.00;;
12118;SDS011;6123;48.864;9.200;2022-09-01T10:36:35;3.72;;;3.50;;
12118;SDS011;6123;48.864;9.200;2022-09-01T10:39:06;4.20;;;3.80;;
12118;SDS011;6123;48.864;9.200;2022-09-01T10:44:13;4.65;;;4.25;;
12118;SDS011;6123;48.864;9.200;2022-09-01T10:46:47;4.38;;;4.00;;
12118;SDS011;6123;48.864;9.200;2022-09-01T10:51:52;4.35;;;4.07;;
12118;SDS011;6123;48.864;9.200;2022-09-01T10:54:48;4.28;;;3.97;;
12118;SDS011;6123;48.864;9.200;2022-09-01T10:57:20;4.18;;;3.88;;
12118;SDS011;6123;48.864;9.200;2022-09-01T10:59:51;3.80;;;3.50;;
12118;SDS011;6123;48.864;9.200;2022-09-01T11:02:19;4.35;;;4.05;;
12118;SDS011;6123;48.864;9.200;2022-09-01T11:10:27;4.35;;;4.05;;
12118;SDS011;6123;48.864;9.200;2022-09-01T11:12:50;3.90;;;3.70;;
12118;SDS011;6123;48.864;9.200;2022-09-01T11:15:40;3.65;;;3.45;;
12118;SDS011;6123;48.864;9.200;2022-09-01T11:18:08;3.85;;;3.45;;
12118;SDS011;6123;48.864;9.200;2022-09-01T11:20:40;3.65;;;3.30;;
12118;SDS011;6123;48.864;9.200;2022-09-01T11:23:20;3.88;;;3.50;;
12118;SDS011;6123;48.864;9.200;2022-09-01T11:25:59;4.20;;;3.72;;
12118;SDS011;6123;48.864;9.200;2022-09-01T11:30:59;3.90;;;3.70;;
12118;SDS011;6123;48.864;9.200;2022-09-01T11:33:42;4.50;;;4.20;;
12118;SDS011;6123;48.864;9.200;2022-09-01T11:39:54;3.90;;;3.70;;
12118;SDS011;6123;48.864;9.200;2022-09-01T11:42:08;3.53;;;3.33;;
12118;SDS011;6123;48.864;9.200;2022-09-01T11:47:38;3.83;;;3.53;;
12118;SDS011;6123;48.864;9.200;2022-09-01T11:50:27;3.83;;;3.53;;
12118;SDS011;6123;48.864;9.200;2022-09-01T11:53:06;3.97;;;3.72;;
12118;SDS011;6123;48.864;9.200;2022-09-01T11:55:36;3.92;;;3.63;;
12118;SDS011;6123;48.864;9.200;2022-09-01T11:58:10;4.32;;;4.03;;
12118;SDS011;6123;48.864;9.200;2022-09-01T12:00:39;4.20;;;3.80;;
12118;SDS011;6123;48.864;9.200;2022-09-01T12:03:25;5.45;;;3.70;;
12118;SDS011;6123;48.864;9.200;2022-09-01T12:06:06;4.40;;;4.10;;
12118;SDS011;6123;48.864;9.200;2022-09-01T12:08:35;4.18;;;3.78;;
12118;SDS011;6123;48.864;9.200;2022-09-01T12:14:10;3.88;;;3.63;;
12118;SDS011;6123;48.864;9.200;2022-09-01T12:16:43;3.42;;;3.22;;
12118;SDS011;6123;48.864;9.200;2022-09-01T12:19:23;3.55;;;3.35;;
12118;SDS011;6123;48.864;9.200;2022-09-01T12:21:55;3.60;;;3.40;;
12118;SDS011;6123;48.864;9.200;2022-09-01T12:24:26;3.90;;;3.60;;
12118;SDS011;6123;48.864;9.200;2022-09-01T12:26:55;3.45;;;3.15;;
12118;SDS011;6123;48.864;9.200;2022-09-01T12:29:23;3.30;;;3.10;;
12118;SDS011;6123;48.864;9.200;2022-09-01T12:31:49;3.72;;;3.53;;
12118;SDS011;6123;48.864;9.200;2022-09-01T12:37:06;4.30;;;3.65;;
12118;SDS011;6123;48.864;9.200;2022-09-01T12:39:39;3.65;;;3.35;;
12118;SDS011;6123;48.864;9.200;2022-09-01T12:42:10;3.47;;;3.28;;
12118;SDS011;6123;48.864;9.200;2022-09-01T12:44:53;3.10;;;2.90;;
12118;SDS011;6123;48.864;9.200;2022-09-01T12:50:04;3.45;;;3.25;;
12118;SDS011;6123;48.864;9.200;2022-09-01T12:52:44;3.72;;;3.50;;
12118;SDS011;6123;48.864;9.200;2022-09-01T12:55:21;4.00;;;3.80;;
12118;SDS011;6123;48.864;9.200;2022-09-01T12:57:49;3.55;;;3.35;;
12118;SDS011;6123;48.864;9.200;2022-09-01T13:05:30;3.72;;;3.53;;
12118;SDS011;6123;48.864;9.200;2022-09-01T13:08:01;3.92;;;3.72;;
12118;SDS011;6123;48.864;9.200;2022-09-01T13:10:33;4.45;;;4.15;;
12118;SDS011;6123;48.864;9.200;2022-09-01T13:13:05;4.72;;;4.28;;
12118;SDS011;6123;48.864;9.200;2022-09-01T13:15:33;5.50;;;4.30;;
12118;SDS011;6123;48.864;9.200;2022-09-01T13:18:00;4.97;;;4.13;;
12118;SDS011;6123;48.864;9.200;2022-09-01T13:20:26;5.03;;;4.63;;
12118;SDS011;6123;48.864;9.200;2022-09-01T13:22:51;4.35;;;4.05;;
12118;SDS011;6123;48.864;9.200;2022-09-01T13:25:19;4.13;;;3.92;;
12118;SDS011;6123;48.864;9.200;2022-09-01T13:27:46;4.40;;;4.10;;
12118;SDS011;6123;48.864;9.200;2022-09-01T13:30:13;4.70;;;4.38;;
12118;SDS011;6123;48.864;9.200;2022-09-01T13:32:43;4.32;;;4.03;;
12118;SDS011;6123;48.864;9.200;2022-09-01T13:35:10;4.07;;;3.78;;
12118;SDS011;6123;48.864;9.200;2022-09-01T13:37:39;4.75;;;4.45;;
12118;SDS011;6123;48.864;9.200;2022-09-01T13:40:05;4.57;;;4.07;;
12118;SDS011;6123;48.864;9.200;2022-09-01T13:42:38;4.40;;;4.00;;
12118;SDS011;6123;48.864;9.200;2022-09-01T13:45:04;5.72;;;4.13;;
12118;SDS011;6123;48.864;9.200;2022-09-01T13:47:30;4.22;;;3.95;;
12118;SDS011;6123;48.864;9.200;2022-09-01T13:49:56;5.10;;;4.13;;
12118;SDS011;6123;48.864;9.200;2022-09-01T13:52:22;4.47;;;3.95;;
12118;SDS011;6123;48.864;9.200;2022-09-01T13:54:47;3.70;;;3.50;;
12118;SDS011;6123;48.864;9.200;2022-09-01T13:57:13;3.40;;;3.15;;
12118;SDS011;6123;48.864;9.200;2022-09-01T13:59:40;3.03;;;2.83;;
12118;SDS011;6123;48.864;9.200;2022-09-01T14:02:10;3.00;;;2.80;;
12118;SDS011;6123;48.864;9.200;2022-09-01T14:04:36;3.20;;;2.90;;
12118;SDS011;6123;48.864;9.200;2022-09-01T14:07:02;3.28;;;3.08;;
12118;SDS011;6123;48.864;9.200;2022-09-01T14:09:28;3.33;;;3.10;;
12118;SDS011;6123;48.864;9.200;2022-09-01T14:11:55;3.33;;;3.00;;
12118;SDS011;6123;48.864;9.200;2022-09-01T14:14:24;3.50;;;3.20;;
12118;SDS011;6123;48.864;9.200;2022-09-01T14:16:50;3.45;;;3.15;;
12118;SDS011;6123;48.864;9.200;2022-09-01T14:19:16;3.35;;;3.15;;
12118;SDS011;6123;48.864;9.200;2022-09-01T14:21:42;3.10;;;2.90;;
12118;SDS011;6123;48.864;9.200;2022-09-01T14:24:08;3.10;;;2.90;;
12118;SDS011;6123;48.864;9.200;2022-09-01T14:26:33;2.97;;;2.78;;
12118;SDS011;6123;48.864;9.200;2022-09-01T14:29:00;3.45;;;3.20;;
12118;SDS011;6123;48.864;9.200;2022-09-01T14:31:26;3.15;;;2.95;;
12118;SDS011;6123;48.864;9.200;2022-09-01T14:33:53;3.08;;;2.88;;
12118;SDS011;6123;48.864;9.200;2022-09-01T14:36:25;3.22;;;3.03;;
12118;SDS011;6123;48.864;9.200;2022-09-01T14:38:53;3.17;;;2.97;;
12118;SDS011;6123;48.864;9.200;2022-09-01T14:41:19;4.32;;;3.42;;
12118;SDS011;6123;48.864;9.200;2022-09-01T14:43:49;3.53;;;3.22;;
12118;SDS011;6123;48.864;9.200;2022-09-01T14:46:18;3.47;;;3.17;;
12118;SDS011;6123;48.864;9.200;2022-09-01T14:48:44;3.13;;;2.92;;
12118;SDS011;6123;48.864;9.200;2022-09-01T14:51:18;3.42;;;3.22;;
12118;SDS011;6123;48.864;9.200;2022-09-01T14:53:53;3.08;;;2.88;;
12118;SDS011;6123;48.864;9.200;2022-09-01T14:56:20;3.53;;;3.30;;
12118;SDS011;6123;48.864;9.200;2022-09-01T14:58:47;2.97;;;2.78;;
12118;SDS011;6123;48.864;9.200;2022-09-01T15:01:14;3.40;;;3.10;;
12118;SDS011;6123;48.864;9.200;2022-09-01T15:03:41;3.08;;;2.80;;
12118;SDS011;6123;48.864;9.200;2022-09-01T15:06:10;3.00;;;2.80;;
12118;SDS011;6123;48.864;9.200;2022-09-01T15:08:37;2.97;;;2.78;;
12118;SDS011;6123;48.864;9.200;2022-09-01T15:11:07;3.17;;;2.90;;
12118;SDS011;6123;48.864;9.200;2022-09-01T15:13:42;2.75;;;2.65;;
12118;SDS011;6123;48.864;9.200;2022-09-01T15:16:17;2.95;;;2.75;;
12118;SDS011;6123;48.864;9.200;2022-09-01T15:18:45;2.85;;;2.65;;
12118;SDS011;6123;48.864;9.200;2022-09-01T15:21:19;3.05;;;2.85;;
12118;SDS011;6123;48.864;9.200;2022-09-01T15:23:57;2.65;;;2.45;;
12118;SDS011;6123;48.864;9.200;2022-09-01T15:26:23;4.03;;;2.55;;
12118;SDS011;6123;48.864;9.200;2022-09-01T15:28:49;3.08;;;2.80;;
12118;SDS011;6123;48.864;9.200;2022-09-01T15:31:16;3.00;;;2.70;;
12118;SDS011;6123;48.864;9.200;2022-09-01T15:33:43;2.60;;;2.40;;
12118;SDS011;6123;48.864;9.200;2022-09-01T15:36:13;2.85;;;2.60;;
12118;SDS011;6123;48.864;9.200;2022-09-01T15:38:44;2.45;;;2.30;;
12118;SDS011;6123;48.864;9.200;2022-09-01T15:41:18;3.65;;;2.50;;
12118;SDS011;6123;48.864;9.200;2022-09-01T15:43:48;4.82;;;2.95;;
12118;SDS011;6123;48.864;9.200;2022-09-01T15:46:14;3.22;;;2.92;;
12118;SDS011;6123;48.864;9.200;2022-09-01T15:48:40;2.50;;;2.33;;
12118;SDS011;6123;48.864;9.200;2022-09-01T15:53:47;3.42;;;2.70;;
12118;SDS011;6123;48.864;9.200;2022-09-01T15:56:18;3.63;;;2.85;;
12118;SDS011;6123;48.864;9.200;2022-09-01T15:58:48;3.30;;;3.10;;
12118;SDS011;6123;48.864;9.200;2022-09-01T16:01:17;2.58;;;2.47;;
12118;SDS011;6123;48.864;9.200;2022-09-01T16:03:46;3.17;;;2.67;;
12118;SDS011;6123;48.864;9.200;2022-09-01T16:06:12;2.67;;;2.58;;
12118;SDS011;6123;48.864;9.200;2022-09-01T16:08:39;2.72;;;2.30;;
12118;SDS011;6123;48.864;9.200;2022-09-01T16:11:06;2.40;;;2.30;;
12118;SDS011;6123;48.864;9.200;2022-09-01T16:13:40;2.83;;;2.63;;
12118;SDS011;6123;48.864;9.200;2022-09-01T16:24:39;3.35;;;2.55;;
12118;SDS011;6123;48.864;9.200;2022-09-01T16:27:07;2.97;;;2.78;;